createdAt,value
2022-11-28T00:01:34.895Z,6.65
2022-11-28T00:04:01.584Z,6.73
2022-11-28T00:06:28.593Z,6.78
2022-11-28T00:08:57.863Z,6.80
2022-11-28T00:11:24.465Z,6.82
2022-11-28T00:13:51.048Z,6.87
2022-11-28T00:16:23.113Z,6.94
2022-11-28T00:18:51.981Z,7.04
2022-11-28T00:21:18.655Z,7.17
2022-11-28T00:23:45.954Z,7.27
2022-11-28T00:26:16.599Z,6.98
2022-11-28T00:28:43.123Z,6.01
2022-11-28T00:31:21.648Z,5.12
2022-11-28T00:33:48.322Z,4.42
2022-11-28T00:36:15.165Z,3.92
2022-11-28T00:38:41.757Z,4.15
2022-11-28T00:41:15.725Z,4.90
2022-11-28T00:43:43.481Z,5.45
2022-11-28T00:46:10.912Z,5.81
2022-11-28T00:48:37.442Z,6.04
2022-11-28T00:51:12.259Z,6.20
2022-11-28T00:53:42.664Z,6.35
2022-11-28T00:56:11.297Z,6.48
2022-11-28T00:58:38.244Z,6.56
2022-11-28T01:01:32.764Z,6.64
2022-11-28T01:04:01.375Z,6.78
2022-11-28T01:06:49.943Z,6.86
2022-11-28T01:09:22.236Z,6.96
2022-11-28T01:11:49.897Z,7.05
2022-11-28T01:14:19.296Z,7.10
2022-11-28T01:16:45.894Z,6.64
2022-11-28T01:19:13.241Z,5.62
2022-11-28T01:21:39.770Z,4.77
2022-11-28T01:24:06.403Z,4.13
2022-11-28T01:26:33.248Z,3.99
2022-11-28T01:29:00.166Z,4.70
2022-11-28T01:31:28.270Z,5.34
2022-11-28T01:33:55.389Z,5.78
2022-11-28T01:36:22.406Z,6.07
2022-11-28T01:38:49.350Z,6.29
2022-11-28T01:41:17.568Z,6.43
2022-11-28T01:44:02.392Z,6.47
2022-11-28T01:46:29.151Z,6.49
2022-11-28T01:48:57.912Z,6.52
2022-11-28T01:51:24.561Z,6.55
2022-11-28T01:53:51.084Z,6.49
2022-11-28T01:56:21.558Z,6.51
2022-11-28T01:58:54.094Z,6.48
2022-11-28T02:01:20.852Z,6.56
2022-11-28T02:03:48.284Z,6.60
2022-11-28T02:06:19.583Z,6.68
2022-11-28T02:08:46.470Z,6.71
2022-11-28T02:11:40.550Z,6.70
2022-11-28T02:15:00.229Z,6.68
2022-11-28T02:18:05.676Z,6.65
2022-11-28T02:21:13.580Z,6.70
2022-11-28T02:24:19.050Z,6.74
2022-11-28T02:26:54.775Z,6.78
2022-11-28T02:29:50.746Z,6.81
2022-11-28T02:32:38.636Z,6.84
2022-11-28T02:35:20.171Z,6.84
2022-11-28T02:38:27.730Z,6.82
2022-11-28T02:41:12.655Z,6.80
2022-11-28T02:44:04.566Z,6.81
2022-11-28T02:47:06.672Z,6.80
2022-11-28T02:49:58.522Z,5.83
2022-11-28T02:52:29.528Z,4.68
2022-11-28T02:54:56.080Z,3.96
2022-11-28T02:57:22.720Z,3.43
2022-11-28T02:59:49.869Z,3.01
2022-11-28T03:02:24.321Z,2.66
2022-11-28T03:05:07.762Z,2.94
2022-11-28T03:08:23.094Z,4.00
2022-11-28T03:11:10.477Z,4.83
2022-11-28T03:14:03.782Z,5.26
2022-11-28T03:16:45.986Z,5.57
2022-11-28T03:19:20.876Z,5.80
2022-11-28T03:22:02.898Z,5.97
2022-11-28T03:24:46.237Z,6.16
2022-11-28T03:27:39.088Z,6.27
2022-11-28T03:30:16.373Z,6.33
2022-11-28T03:32:43.027Z,6.44
2022-11-28T03:35:15.292Z,6.57
2022-11-28T03:37:49.130Z,6.67
2022-11-28T03:40:19.924Z,6.78
2022-11-28T03:42:56.976Z,6.92
2022-11-28T03:45:29.270Z,6.68
2022-11-28T03:48:02.460Z,5.69
2022-11-28T03:50:36.103Z,4.79
2022-11-28T03:53:05.771Z,4.29
2022-11-28T03:55:48.242Z,4.85
2022-11-28T03:58:49.433Z,5.54
2022-11-28T04:02:01.834Z,6.01
2022-11-28T04:04:50.692Z,6.29
2022-11-28T04:07:42.359Z,6.44
2022-11-28T04:10:20.725Z,6.59
2022-11-28T04:12:54.679Z,6.70
2022-11-28T04:15:44.746Z,6.79
2022-11-28T04:18:37.637Z,6.83
2022-11-28T04:21:12.196Z,6.39
2022-11-28T04:23:40.264Z,5.28
2022-11-28T04:26:14.259Z,4.40
2022-11-28T04:28:41.320Z,3.69
2022-11-28T04:31:08.006Z,3.18
2022-11-28T04:33:37.969Z,3.22
2022-11-28T04:36:05.738Z,4.11
2022-11-28T04:38:32.248Z,4.77
2022-11-28T04:41:14.266Z,5.18
2022-11-28T04:43:49.289Z,5.44
2022-11-28T04:46:20.738Z,5.64
2022-11-28T04:48:47.386Z,5.81
2022-11-28T04:51:20.781Z,5.91
2022-11-28T04:54:07.388Z,5.95
2022-11-28T04:56:41.806Z,6.05
2022-11-28T04:59:08.442Z,6.11
2022-11-28T05:01:34.981Z,6.09
2022-11-28T05:04:02.028Z,6.17
2022-11-28T05:06:32.164Z,6.21
2022-11-28T05:08:58.881Z,6.32
2022-11-28T05:11:25.925Z,6.35
2022-11-28T05:13:53.382Z,6.44
2022-11-28T05:16:20.335Z,6.48
2022-11-28T05:18:46.963Z,6.56
2022-11-28T05:21:13.807Z,6.58
2022-11-28T05:23:42.897Z,5.69
2022-11-28T05:26:12.559Z,4.66
2022-11-28T05:28:39.450Z,3.85
2022-11-28T05:31:05.941Z,3.65
2022-11-28T05:33:33.339Z,4.41
2022-11-28T05:36:12.621Z,5.06
2022-11-28T05:38:40.760Z,5.51
2022-11-28T05:41:07.388Z,5.73
2022-11-28T05:43:34.118Z,5.87
2022-11-28T05:46:00.740Z,5.96
2022-11-28T05:48:27.298Z,6.05
2022-11-28T05:50:53.780Z,6.19
2022-11-28T05:53:20.361Z,6.30
2022-11-28T05:55:46.994Z,6.36
2022-11-28T05:58:13.637Z,6.43
2022-11-28T06:00:40.368Z,6.53
2022-11-28T06:03:07.010Z,6.55
2022-11-28T06:05:42.686Z,6.60
2022-11-28T06:08:13.272Z,6.41
2022-11-28T06:10:40.540Z,5.36
2022-11-28T06:13:07.163Z,4.41
2022-11-28T06:15:37.466Z,3.66
2022-11-28T06:18:04.549Z,3.09
2022-11-28T06:20:31.027Z,2.63
2022-11-28T06:22:57.717Z,2.51
2022-11-28T06:25:24.248Z,3.25
2022-11-28T06:27:50.787Z,4.03
2022-11-28T06:30:17.428Z,4.53
2022-11-28T06:32:44.058Z,4.96
2022-11-28T06:35:10.691Z,5.30
2022-11-28T06:37:37.433Z,5.59
2022-11-28T06:40:05.325Z,5.89
2022-11-28T06:42:31.771Z,6.12
2022-11-28T06:44:58.366Z,6.21
2022-11-28T06:47:24.878Z,6.29
2022-11-28T06:49:51.550Z,6.41
2022-11-28T06:52:18.175Z,6.52
2022-11-28T06:54:44.708Z,6.62
2022-11-28T06:57:11.857Z,6.29
2022-11-28T06:59:38.495Z,5.32
2022-11-28T07:02:07.714Z,4.54
2022-11-28T07:04:34.848Z,3.93
2022-11-28T07:07:01.487Z,3.46
2022-11-28T07:09:28.207Z,3.08
2022-11-28T07:11:54.853Z,2.76
2022-11-28T07:14:21.589Z,2.78
2022-11-28T07:16:48.847Z,4.49
2022-11-28T07:19:15.643Z,5.61
2022-11-28T07:21:42.146Z,6.03
2022-11-28T07:24:08.817Z,6.30
2022-11-28T07:26:37.439Z,6.58
2022-11-28T07:29:06.341Z,6.68
2022-11-28T07:31:33.105Z,5.93
2022-11-28T07:34:01.447Z,5.03
2022-11-28T07:36:28.212Z,4.31
2022-11-28T07:38:59.188Z,3.81
2022-11-28T07:41:27.010Z,4.27
2022-11-28T07:43:56.903Z,5.50
2022-11-28T07:46:24.118Z,6.24
2022-11-28T07:48:50.915Z,6.39
2022-11-28T07:51:24.097Z,6.55
2022-11-28T07:53:50.665Z,6.61
2022-11-28T07:56:22.164Z,6.40
2022-11-28T07:58:49.152Z,5.51
2022-11-28T08:01:23.305Z,4.69
2022-11-28T08:03:50.738Z,4.48
2022-11-28T08:06:18.985Z,5.21
2022-11-28T08:08:46.818Z,5.80
2022-11-28T08:11:13.776Z,6.11
2022-11-28T08:13:40.403Z,6.35
2022-11-28T08:16:11.177Z,6.56
2022-11-28T08:18:37.791Z,6.78
2022-11-28T08:21:10.588Z,6.51
2022-11-28T08:23:41.732Z,5.61
2022-11-28T08:26:09.888Z,4.88
2022-11-28T08:28:36.644Z,5.08
2022-11-28T08:31:34.572Z,6.06
2022-11-28T08:34:03.459Z,6.68
2022-11-28T08:36:30.202Z,6.87
2022-11-28T08:41:45.736Z,5.24
2022-11-28T08:44:12.743Z,5.66
2022-11-28T08:46:39.236Z,6.11
2022-11-28T08:49:07.060Z,6.37
2022-11-28T08:51:33.496Z,6.60
2022-11-28T08:54:00.235Z,6.40
2022-11-28T08:56:27.619Z,5.51
2022-11-28T08:58:54.819Z,5.86
2022-11-28T09:01:24.388Z,6.75
2022-11-28T09:03:51.657Z,7.08
2022-11-28T09:06:18.619Z,6.67
2022-11-28T09:08:45.008Z,5.72
2022-11-28T09:11:14.171Z,5.09
2022-11-28T09:13:40.827Z,5.77
2022-11-28T09:16:08.191Z,7.00
2022-11-28T09:18:34.879Z,7.96
2022-11-28T09:21:04.842Z,8.14
2022-11-28T09:23:31.363Z,7.25
2022-11-28T09:25:57.858Z,6.37
2022-11-28T09:28:24.387Z,5.72
2022-11-28T09:30:58.548Z,5.79
2022-11-28T09:33:25.140Z,6.95
2022-11-28T09:35:51.586Z,7.44
2022-11-28T09:38:18.103Z,7.56
2022-11-28T09:40:44.754Z,6.81
2022-11-28T09:43:42.507Z,6.03
2022-11-28T09:46:14.245Z,5.77
2022-11-28T09:48:51.830Z,7.28
2022-11-28T09:51:27.804Z,7.64
2022-11-28T09:54:10.922Z,6.71
2022-11-28T09:56:37.361Z,5.88
2022-11-28T09:59:03.934Z,6.31
2022-11-28T10:01:48.032Z,7.54
2022-11-28T10:04:38.501Z,7.80
2022-11-28T10:07:25.310Z,6.80
2022-11-28T10:10:13.384Z,6.18
2022-11-28T10:13:05.787Z,6.97
2022-11-28T10:15:37.879Z,7.26
2022-11-28T10:18:37.520Z,6.38
2022-11-28T10:21:15.542Z,5.35
2022-11-28T10:23:43.888Z,5.49
2022-11-28T10:26:25.917Z,6.87
2022-11-28T10:28:53.069Z,7.30
2022-11-28T10:31:31.545Z,6.87
2022-11-28T10:35:00.785Z,5.87
2022-11-28T10:37:30.743Z,4.89
2022-11-28T10:40:19.770Z,5.48
2022-11-28T10:42:56.285Z,6.59
2022-11-28T10:45:31.037Z,6.28
2022-11-28T10:48:40.597Z,5.24
2022-11-28T10:51:39.155Z,4.83
2022-11-28T10:54:24.120Z,5.81
2022-11-28T10:57:03.251Z,6.45
2022-11-28T11:00:05.426Z,6.80
2022-11-28T11:02:37.970Z,5.93
2022-11-28T11:05:06.238Z,5.01
2022-11-28T11:07:41.613Z,4.37
2022-11-28T11:10:14.962Z,4.74
2022-11-28T11:12:41.477Z,5.99
2022-11-28T11:15:29.320Z,6.49
2022-11-28T11:17:59.799Z,6.69
2022-11-28T11:20:52.011Z,6.84
2022-11-28T11:23:28.472Z,6.82
2022-11-28T11:25:57.655Z,6.03
2022-11-28T11:28:45.147Z,5.12
2022-11-28T11:31:25.657Z,4.40
2022-11-28T11:34:06.914Z,4.81
2022-11-28T11:36:35.752Z,5.69
2022-11-28T11:39:11.914Z,6.23
2022-11-28T11:42:03.260Z,6.57
2022-11-28T11:44:35.876Z,5.96
2022-11-28T11:47:06.191Z,4.99
2022-11-28T11:49:38.402Z,5.05
2022-11-28T11:52:25.858Z,6.07
2022-11-28T11:55:15.337Z,6.87
2022-11-28T11:57:51.041Z,6.96
2022-11-28T12:00:20.399Z,5.86
2022-11-28T12:02:57.558Z,4.99
2022-11-28T12:05:28.021Z,4.20
2022-11-28T12:07:59.468Z,4.12
2022-11-28T12:10:35.113Z,5.54
2022-11-28T12:13:01.726Z,6.48
2022-11-28T12:15:43.419Z,6.96
2022-11-28T12:18:20.147Z,7.17
2022-11-28T12:21:14.397Z,6.06
2022-11-28T12:23:48.483Z,4.72
2022-11-28T12:26:33.819Z,4.53
2022-11-28T12:29:21.765Z,5.80
2022-11-28T12:31:57.608Z,6.65
2022-11-28T12:34:27.113Z,7.04
2022-11-28T12:37:08.756Z,6.15
2022-11-28T12:39:44.663Z,4.94
2022-11-28T12:42:36.655Z,4.16
2022-11-28T12:45:37.626Z,4.90
2022-11-28T12:48:23.664Z,5.86
2022-11-28T12:50:54.799Z,6.06
2022-11-28T12:53:58.200Z,5.96
2022-11-28T12:56:41.688Z,4.70
2022-11-28T12:59:34.974Z,4.10
2022-11-28T13:02:42.291Z,5.26
2022-11-28T13:05:17.745Z,6.32
2022-11-28T13:07:52.253Z,6.86
2022-11-28T13:10:35.593Z,6.53
2022-11-28T13:13:22.546Z,5.24
2022-11-28T13:16:47.502Z,4.22
2022-11-28T13:20:02.185Z,3.97
2022-11-28T13:23:03.045Z,5.53
2022-11-28T13:25:32.428Z,6.56
2022-11-28T13:28:21.523Z,6.93
2022-11-28T13:30:52.672Z,6.20
2022-11-28T13:33:29.643Z,5.12
2022-11-28T13:35:57.630Z,4.16
2022-11-28T13:39:12.248Z,3.53
2022-11-28T13:45:31.895Z,4.81
2022-11-28T13:48:00.256Z,6.03
2022-11-28T13:50:29.659Z,6.67
2022-11-28T13:53:23.585Z,6.54
2022-11-28T13:56:23.742Z,5.16
2022-11-28T13:58:56.609Z,4.00
2022-11-28T14:01:28.447Z,3.99
2022-11-28T14:03:58.152Z,5.04
2022-11-28T14:06:45.789Z,5.93
2022-11-28T14:09:15.282Z,6.35
2022-11-28T14:12:22.474Z,6.49
2022-11-28T14:15:07.990Z,4.96
2022-11-28T14:17:58.625Z,3.85
2022-11-28T14:20:44.171Z,3.80
2022-11-28T14:23:21.060Z,5.03
2022-11-28T14:25:50.354Z,5.91
2022-11-28T14:28:30.190Z,6.33
2022-11-28T14:31:04.316Z,6.25
2022-11-28T14:33:37.215Z,5.05
2022-11-28T14:36:21.675Z,4.02
2022-11-28T14:39:10.105Z,3.65
2022-11-28T14:42:36.708Z,4.62
2022-11-28T14:45:39.818Z,5.66
2022-11-28T14:48:29.490Z,6.27
2022-11-28T14:51:01.255Z,5.84
2022-11-28T14:53:35.786Z,4.69
2022-11-28T14:56:23.377Z,3.76
2022-11-28T14:58:51.683Z,3.87
2022-11-28T15:01:47.965Z,4.75
2022-11-28T15:04:39.843Z,6.46
2022-11-28T15:07:25.564Z,7.46
2022-11-28T15:10:08.198Z,6.12
2022-11-28T15:13:12.012Z,4.65
2022-11-28T15:15:48.172Z,3.65
2022-11-28T15:18:17.133Z,4.85
2022-11-28T15:20:58.050Z,6.39
2022-11-28T15:23:34.447Z,6.68
2022-11-28T15:26:01.891Z,5.45
2022-11-28T15:28:31.729Z,4.35
2022-11-28T15:31:04.144Z,3.55
2022-11-28T15:33:31.125Z,3.19
2022-11-28T15:36:10.145Z,3.89
2022-11-28T15:38:37.454Z,4.71
2022-11-28T15:41:04.652Z,5.26
2022-11-28T15:43:34.049Z,5.72
2022-11-28T15:46:00.790Z,5.98
2022-11-28T15:48:39.389Z,5.31
2022-11-28T15:51:07.411Z,4.22
2022-11-28T15:53:41.698Z,3.43
2022-11-28T15:56:10.072Z,2.89
2022-11-28T15:58:37.015Z,3.50
2022-11-28T16:01:19.352Z,5.51
2022-11-28T16:03:55.420Z,7.00
2022-11-28T16:06:24.569Z,7.06
2022-11-28T16:09:00.973Z,5.73
2022-11-28T16:11:30.038Z,4.44
2022-11-28T16:13:58.562Z,3.61
2022-11-28T16:16:27.547Z,2.97
2022-11-28T16:19:02.027Z,3.21
2022-11-28T16:21:51.428Z,5.67
2022-11-28T16:24:30.199Z,6.97
2022-11-28T16:27:01.356Z,5.90
2022-11-28T16:29:34.553Z,4.62
2022-11-28T16:32:41.018Z,3.72
2022-11-28T16:35:11.851Z,3.40
2022-11-28T16:37:38.796Z,5.29
2022-11-28T16:40:19.743Z,6.75
2022-11-28T16:42:53.618Z,7.07
2022-11-28T16:45:28.969Z,5.89
2022-11-28T16:48:08.188Z,4.53
2022-11-28T16:50:35.909Z,3.59
2022-11-28T16:53:02.963Z,3.21
2022-11-28T16:55:29.389Z,4.01
2022-11-28T16:58:16.855Z,4.75
2022-11-28T17:00:55.421Z,5.26
2022-11-28T17:03:50.125Z,5.72
2022-11-28T17:06:28.331Z,5.96
2022-11-28T17:08:55.872Z,5.96
2022-11-28T17:11:25.183Z,5.04
2022-11-28T17:13:51.962Z,4.08
2022-11-28T17:16:23.330Z,3.32
2022-11-28T17:18:50.325Z,2.76
2022-11-28T17:21:31.700Z,2.44
2022-11-28T17:23:59.860Z,3.27
2022-11-28T17:26:26.513Z,4.11
2022-11-28T17:28:52.938Z,4.67
2022-11-28T17:31:21.335Z,5.07
2022-11-28T17:33:48.063Z,5.35
2022-11-28T17:36:14.537Z,5.56
2022-11-28T17:38:41.336Z,5.78
2022-11-28T17:41:13.117Z,5.89
2022-11-28T17:43:40.355Z,5.87
2022-11-28T17:46:07.143Z,5.92
2022-11-28T17:48:34.229Z,5.91
2022-11-28T17:51:03.079Z,5.94
2022-11-28T17:53:29.933Z,5.74
2022-11-28T17:55:59.066Z,4.70
2022-11-28T17:58:27.127Z,3.68
2022-11-28T18:00:59.986Z,2.93
2022-11-28T18:03:27.872Z,2.34
2022-11-28T18:05:54.716Z,1.90
2022-11-28T18:08:22.359Z,1.54
2022-11-28T18:10:49.321Z,1.55
2022-11-28T18:13:17.083Z,2.48
2022-11-28T18:15:46.486Z,3.38
2022-11-28T18:18:14.657Z,4.01
2022-11-28T18:20:41.088Z,4.54
2022-11-28T18:23:09.876Z,4.91
2022-11-28T18:25:41.535Z,5.22
2022-11-28T18:28:08.065Z,5.41
2022-11-28T18:30:34.702Z,5.58
2022-11-28T18:33:01.339Z,5.72
2022-11-28T18:35:27.805Z,5.79
2022-11-28T18:37:54.256Z,5.84
2022-11-28T18:40:21.043Z,5.52
2022-11-28T18:42:47.652Z,4.55
2022-11-28T18:45:14.568Z,3.67
2022-11-28T18:47:40.996Z,2.96
2022-11-28T18:50:08.075Z,2.40
2022-11-28T18:52:35.764Z,1.94
2022-11-28T18:55:03.833Z,1.55
2022-11-28T18:57:33.032Z,1.22
2022-11-28T19:00:00.654Z,0.91
2022-11-28T19:02:28.349Z,0.68
2022-11-28T19:04:55.397Z,1.27
2022-11-28T19:07:23.296Z,2.76
2022-11-28T19:09:50.207Z,3.80
2022-11-28T19:12:19.063Z,4.19
2022-11-28T19:14:45.871Z,4.45
2022-11-28T19:17:12.984Z,4.70
2022-11-28T19:19:43.498Z,4.91
2022-11-28T19:22:11.289Z,5.14
2022-11-28T19:24:38.615Z,5.25
2022-11-28T19:27:08.371Z,5.37
2022-11-28T19:29:37.440Z,5.49
2022-11-28T19:32:04.540Z,5.56
2022-11-28T19:34:31.320Z,5.60
2022-11-28T19:36:57.783Z,5.67
2022-11-28T19:39:25.415Z,5.69
2022-11-28T19:41:53.279Z,5.14
2022-11-28T19:44:24.217Z,4.09
2022-11-28T19:46:52.388Z,3.16
2022-11-28T19:49:21.821Z,2.73
2022-11-28T19:51:48.815Z,3.45
2022-11-28T19:54:18.823Z,3.95
2022-11-28T19:56:45.813Z,4.38
2022-11-28T19:59:13.564Z,4.71
2022-11-28T20:01:40.432Z,4.87
2022-11-28T20:04:08.416Z,4.92
2022-11-28T20:06:35.012Z,4.96
2022-11-28T20:09:08.504Z,4.92
2022-11-28T20:11:36.508Z,4.98
2022-11-28T20:14:06.897Z,5.08
2022-11-28T20:16:35.107Z,5.19
2022-11-28T20:19:02.524Z,5.26
2022-11-28T20:21:30.110Z,5.17
2022-11-28T20:24:03.518Z,5.18
2022-11-28T20:26:33.844Z,5.14
2022-11-28T20:29:00.704Z,5.11
2022-11-28T20:31:34.632Z,5.16
2022-11-28T20:34:01.289Z,5.06
2022-11-28T20:36:29.948Z,4.99
2022-11-28T20:38:57.528Z,5.11
2022-11-28T20:41:24.988Z,5.02
2022-11-28T20:43:51.522Z,5.00
2022-11-28T20:46:19.133Z,4.97
2022-11-28T20:48:46.024Z,4.90
2022-11-28T20:51:18.497Z,5.00
2022-11-28T20:53:45.178Z,5.17
2022-11-28T20:56:14.472Z,5.26
2022-11-28T20:58:41.175Z,5.28
2022-11-28T21:01:08.039Z,5.25
2022-11-28T21:03:36.360Z,5.38
2022-11-28T21:06:02.968Z,5.45
2022-11-28T21:08:30.797Z,5.51
2022-11-28T21:10:57.332Z,5.49
2022-11-28T21:13:24.170Z,5.47
2022-11-28T21:15:51.653Z,5.43
2022-11-28T21:18:18.336Z,5.46
2022-11-28T21:20:45.613Z,5.60
2022-11-28T21:23:12.778Z,5.61
2022-11-28T21:25:39.571Z,5.71
2022-11-28T21:28:07.059Z,5.85
2022-11-28T21:30:45.676Z,5.76
2022-11-28T21:33:12.417Z,5.77
2022-11-28T21:35:39.302Z,5.76
2022-11-28T21:38:06.613Z,5.74
2022-11-28T21:40:33.110Z,5.72
2022-11-28T21:42:59.682Z,5.73
2022-11-28T21:45:26.828Z,5.61
2022-11-28T21:47:53.366Z,5.52
2022-11-28T21:50:20.001Z,5.66
2022-11-28T21:52:46.677Z,5.64
2022-11-28T21:55:13.173Z,5.67
2022-11-28T21:57:44.210Z,5.76
2022-11-28T22:00:31.325Z,5.77
2022-11-28T22:05:45.183Z,5.79
2022-11-28T22:08:12.057Z,5.79
2022-11-28T22:10:38.660Z,5.78
2022-11-28T22:13:05.932Z,5.78
2022-11-28T22:15:32.549Z,5.74
2022-11-28T22:17:59.239Z,5.77
2022-11-28T22:20:25.906Z,5.91
2022-11-28T22:22:52.459Z,5.80
2022-11-28T22:25:19.155Z,5.84
2022-11-28T22:27:45.588Z,5.73
2022-11-28T22:30:12.208Z,5.71
2022-11-28T22:32:38.699Z,5.72
2022-11-28T22:35:08.689Z,5.84
2022-11-28T22:37:36.069Z,5.86
2022-11-28T22:40:03.192Z,5.82
2022-11-28T22:42:30.469Z,5.87
2022-11-28T22:44:57.625Z,5.76
2022-11-28T22:47:24.253Z,5.66
2022-11-28T22:49:51.402Z,5.77
2022-11-28T22:52:17.981Z,5.81
2022-11-28T22:54:44.789Z,5.80
2022-11-28T22:57:11.654Z,5.75
2022-11-28T22:59:38.164Z,5.64
2022-11-28T23:02:04.970Z,5.68
2022-11-28T23:04:31.733Z,5.52
2022-11-28T23:06:58.297Z,5.53
2022-11-28T23:09:24.887Z,5.49
2022-11-28T23:11:52.058Z,5.50
2022-11-28T23:14:18.901Z,5.56
2022-11-28T23:16:45.609Z,5.69
2022-11-28T23:19:16.904Z,5.73
2022-11-28T23:21:45.844Z,5.78
2022-11-28T23:24:18.992Z,5.80
2022-11-28T23:26:46.523Z,5.80
2022-11-28T23:29:13.412Z,5.77
2022-11-28T23:31:40.341Z,5.76
2022-11-28T23:34:08.376Z,5.71
2022-11-28T23:36:42.777Z,5.70
2022-11-28T23:39:19.214Z,5.67
2022-11-28T23:41:46.103Z,5.47
2022-11-28T23:44:13.148Z,5.46
2022-11-28T23:46:39.688Z,5.62
2022-11-28T23:49:06.388Z,5.70
2022-11-28T23:51:32.986Z,5.77
2022-11-28T23:53:59.440Z,5.79
2022-11-28T23:56:30.737Z,5.78
2022-11-28T23:58:59.827Z,5.66
